sensor_id;sensor_type;location;lat;lon;timestamp;P1;durP1;ratioP1;P2;durP2;ratioP2
37781;SDS011;23621;50.878;4.584;2022-12-18T00:02:23;31.42;;;18.73;;
37781;SDS011;23621;50.878;4.584;2022-12-18T00:04:50;28.65;;;17.83;;
37781;SDS011;23621;50.878;4.584;2022-12-18T00:07:17;32.08;;;19.30;;
37781;SDS011;23621;50.878;4.584;2022-12-18T00:09:44;39.33;;;19.90;;
37781;SDS011;23621;50.878;4.584;2022-12-18T00:12:12;31.67;;;17.40;;
37781;SDS011;23621;50.878;4.584;2022-12-18T00:14:41;32.08;;;18.35;;
37781;SDS011;23621;50.878;4.584;2022-12-18T00:17:09;29.35;;;18.42;;
37781;SDS011;23621;50.878;4.584;2022-12-18T00:19:36;30.05;;;18.88;;
37781;SDS011;23621;50.878;4.584;2022-12-18T00:22:03;29.85;;;17.42;;
37781;SDS011;23621;50.878;4.584;2022-12-18T00:24:30;31.35;;;17.67;;
37781;SDS011;23621;50.878;4.584;2022-12-18T00:26:56;26.40;;;17.77;;
37781;SDS011;23621;50.878;4.584;2022-12-18T00:29:23;32.50;;;18.80;;
37781;SDS011;23621;50.878;4.584;2022-12-18T00:31:50;30.08;;;18.45;;
37781;SDS011;23621;50.878;4.584;2022-12-18T00:34:17;31.20;;;18.33;;
37781;SDS011;23621;50.878;4.584;2022-12-18T00:36:44;31.08;;;17.67;;
37781;SDS011;23621;50.878;4.584;2022-12-18T00:39:14;33.35;;;17.70;;
37781;SDS011;23621;50.878;4.584;2022-12-18T00:41:40;31.08;;;18.35;;
37781;SDS011;23621;50.878;4.584;2022-12-18T00:44:26;30.17;;;18.08;;
37781;SDS011;23621;50.878;4.584;2022-12-18T00:46:52;29.77;;;17.85;;
37781;SDS011;23621;50.878;4.584;2022-12-18T00:49:19;28.67;;;17.83;;
37781;SDS011;23621;50.878;4.584;2022-12-18T00:51:47;29.23;;;18.02;;
37781;SDS011;23621;50.878;4.584;2022-12-18T00:54:15;27.85;;;16.58;;
37781;SDS011;23621;50.878;4.584;2022-12-18T00:56:42;31.95;;;17.75;;
37781;SDS011;23621;50.878;4.584;2022-12-18T00:59:15;31.35;;;16.52;;
37781;SDS011;23621;50.878;4.584;2022-12-18T01:01:43;27.52;;;16.98;;
37781;SDS011;23621;50.878;4.584;2022-12-18T01:04:11;30.02;;;18.48;;
37781;SDS011;23621;50.878;4.584;2022-12-18T01:06:38;28.02;;;17.40;;
37781;SDS011;23621;50.878;4.584;2022-12-18T01:09:05;29.42;;;18.25;;
37781;SDS011;23621;50.878;4.584;2022-12-18T01:11:32;31.98;;;18.65;;
37781;SDS011;23621;50.878;4.584;2022-12-18T01:13:58;30.42;;;17.83;;
37781;SDS011;23621;50.878;4.584;2022-12-18T01:16:25;31.17;;;18.23;;
37781;SDS011;23621;50.878;4.584;2022-12-18T01:18:52;30.65;;;17.98;;
37781;SDS011;23621;50.878;4.584;2022-12-18T01:21:20;30.52;;;18.00;;
37781;SDS011;23621;50.878;4.584;2022-12-18T01:23:52;32.28;;;18.95;;
37781;SDS011;23621;50.878;4.584;2022-12-18T01:26:20;28.55;;;19.00;;
37781;SDS011;23621;50.878;4.584;2022-12-18T01:28:47;30.83;;;17.52;;
37781;SDS011;23621;50.878;4.584;2022-12-18T01:31:22;32.78;;;17.98;;
37781;SDS011;23621;50.878;4.584;2022-12-18T01:33:56;28.98;;;17.05;;
37781;SDS011;23621;50.878;4.584;2022-12-18T01:36:24;30.35;;;17.13;;
37781;SDS011;23621;50.878;4.584;2022-12-18T01:38:53;29.70;;;18.27;;
37781;SDS011;23621;50.878;4.584;2022-12-18T01:41:25;31.13;;;17.55;;
37781;SDS011;23621;50.878;4.584;2022-12-18T01:47:18;27.50;;;17.05;;
37781;SDS011;23621;50.878;4.584;2022-12-18T01:49:46;29.52;;;17.35;;
37781;SDS011;23621;50.878;4.584;2022-12-18T01:52:13;25.65;;;16.58;;
37781;SDS011;23621;50.878;4.584;2022-12-18T01:54:41;27.63;;;17.23;;
37781;SDS011;23621;50.878;4.584;2022-12-18T01:57:08;31.85;;;17.80;;
37781;SDS011;23621;50.878;4.584;2022-12-18T01:59:35;26.40;;;17.33;;
37781;SDS011;23621;50.878;4.584;2022-12-18T02:02:06;27.65;;;17.15;;
37781;SDS011;23621;50.878;4.584;2022-12-18T02:04:34;30.23;;;16.65;;
37781;SDS011;23621;50.878;4.584;2022-12-18T02:09:46;31.83;;;17.42;;
37781;SDS011;23621;50.878;4.584;2022-12-18T02:12:22;29.30;;;17.92;;
37781;SDS011;23621;50.878;4.584;2022-12-18T02:15:06;26.40;;;16.30;;
37781;SDS011;23621;50.878;4.584;2022-12-18T02:17:55;28.00;;;16.70;;
37781;SDS011;23621;50.878;4.584;2022-12-18T02:20:36;26.88;;;15.52;;
37781;SDS011;23621;50.878;4.584;2022-12-18T02:23:37;29.30;;;16.65;;
37781;SDS011;23621;50.878;4.584;2022-12-18T02:28:53;28.77;;;16.83;;
37781;SDS011;23621;50.878;4.584;2022-12-18T02:31:31;27.88;;;16.05;;
37781;SDS011;23621;50.878;4.584;2022-12-18T02:34:08;28.83;;;17.15;;
37781;SDS011;23621;50.878;4.584;2022-12-18T02:36:38;27.63;;;16.20;;
37781;SDS011;23621;50.878;4.584;2022-12-18T02:39:09;24.75;;;15.35;;
37781;SDS011;23621;50.878;4.584;2022-12-18T02:41:38;29.20;;;16.48;;
37781;SDS011;23621;50.878;4.584;2022-12-18T02:44:09;29.85;;;17.40;;
37781;SDS011;23621;50.878;4.584;2022-12-18T02:46:39;24.63;;;15.73;;
37781;SDS011;23621;50.878;4.584;2022-12-18T02:55:08;26.60;;;16.00;;
37781;SDS011;23621;50.878;4.584;2022-12-18T02:57:55;26.92;;;15.23;;
37781;SDS011;23621;50.878;4.584;2022-12-18T03:03:05;28.40;;;16.42;;
37781;SDS011;23621;50.878;4.584;2022-12-18T03:08:28;29.38;;;16.75;;
37781;SDS011;23621;50.878;4.584;2022-12-18T03:11:02;25.60;;;15.57;;
37781;SDS011;23621;50.878;4.584;2022-12-18T03:13:51;27.27;;;16.27;;
37781;SDS011;23621;50.878;4.584;2022-12-18T03:16:24;26.08;;;15.23;;
37781;SDS011;23621;50.878;4.584;2022-12-18T03:18:55;34.80;;;17.38;;
37781;SDS011;23621;50.878;4.584;2022-12-18T03:22:07;27.88;;;16.88;;
37781;SDS011;23621;50.878;4.584;2022-12-18T03:24:17;29.58;;;17.08;;
37781;SDS011;23621;50.878;4.584;2022-12-18T03:26:46;26.27;;;17.17;;
37781;SDS011;23621;50.878;4.584;2022-12-18T03:29:17;28.05;;;16.15;;
37781;SDS011;23621;50.878;4.584;2022-12-18T03:31:47;32.72;;;16.75;;
37781;SDS011;23621;50.878;4.584;2022-12-18T03:34:19;27.73;;;16.92;;
37781;SDS011;23621;50.878;4.584;2022-12-18T03:36:52;28.27;;;16.35;;
37781;SDS011;23621;50.878;4.584;2022-12-18T03:39:19;30.05;;;17.77;;
37781;SDS011;23621;50.878;4.584;2022-12-18T03:41:50;30.27;;;17.27;;
37781;SDS011;23621;50.878;4.584;2022-12-18T03:44:29;28.02;;;17.65;;
37781;SDS011;23621;50.878;4.584;2022-12-18T03:47:05;31.73;;;17.25;;
37781;SDS011;23621;50.878;4.584;2022-12-18T03:49:46;26.60;;;16.13;;
37781;SDS011;23621;50.878;4.584;2022-12-18T03:52:33;30.13;;;16.67;;
37781;SDS011;23621;50.878;4.584;2022-12-18T03:55:05;27.02;;;15.70;;
37781;SDS011;23621;50.878;4.584;2022-12-18T03:57:33;29.52;;;15.57;;
37781;SDS011;23621;50.878;4.584;2022-12-18T04:00:02;31.70;;;17.13;;
37781;SDS011;23621;50.878;4.584;2022-12-18T04:02:32;26.52;;;15.63;;
37781;SDS011;23621;50.878;4.584;2022-12-18T04:05:02;27.48;;;16.08;;
37781;SDS011;23621;50.878;4.584;2022-12-18T04:07:33;27.90;;;16.75;;
37781;SDS011;23621;50.878;4.584;2022-12-18T04:10:01;28.63;;;16.75;;
37781;SDS011;23621;50.878;4.584;2022-12-18T04:12:32;26.17;;;16.77;;
37781;SDS011;23621;50.878;4.584;2022-12-18T04:14:59;26.27;;;15.75;;
37781;SDS011;23621;50.878;4.584;2022-12-18T04:17:25;26.48;;;16.20;;
37781;SDS011;23621;50.878;4.584;2022-12-18T04:19:52;26.83;;;15.23;;
37781;SDS011;23621;50.878;4.584;2022-12-18T04:22:19;27.98;;;15.75;;
37781;SDS011;23621;50.878;4.584;2022-12-18T04:24:46;22.95;;;15.27;;
37781;SDS011;23621;50.878;4.584;2022-12-18T04:27:13;27.60;;;15.55;;
37781;SDS011;23621;50.878;4.584;2022-12-18T04:29:40;24.55;;;15.85;;
37781;SDS011;23621;50.878;4.584;2022-12-18T04:32:07;23.85;;;15.02;;
37781;SDS011;23621;50.878;4.584;2022-12-18T04:34:34;25.40;;;15.02;;
37781;SDS011;23621;50.878;4.584;2022-12-18T04:37:01;24.20;;;14.88;;
37781;SDS011;23621;50.878;4.584;2022-12-18T04:39:28;28.23;;;15.98;;
37781;SDS011;23621;50.878;4.584;2022-12-18T04:41:55;27.27;;;14.50;;
37781;SDS011;23621;50.878;4.584;2022-12-18T04:44:22;24.42;;;14.75;;
37781;SDS011;23621;50.878;4.584;2022-12-18T04:46:49;26.85;;;14.27;;
37781;SDS011;23621;50.878;4.584;2022-12-18T04:49:16;24.17;;;14.95;;
37781;SDS011;23621;50.878;4.584;2022-12-18T04:51:42;23.40;;;15.05;;
37781;SDS011;23621;50.878;4.584;2022-12-18T04:54:09;25.58;;;14.52;;
37781;SDS011;23621;50.878;4.584;2022-12-18T04:56:36;25.13;;;15.05;;
37781;SDS011;23621;50.878;4.584;2022-12-18T04:59:03;25.50;;;14.98;;
37781;SDS011;23621;50.878;4.584;2022-12-18T05:01:29;25.45;;;14.48;;
37781;SDS011;23621;50.878;4.584;2022-12-18T05:04:01;23.23;;;14.57;;
37781;SDS011;23621;50.878;4.584;2022-12-18T05:06:28;26.52;;;15.73;;
37781;SDS011;23621;50.878;4.584;2022-12-18T05:08:55;23.00;;;14.88;;
37781;SDS011;23621;50.878;4.584;2022-12-18T05:11:22;27.98;;;15.30;;
37781;SDS011;23621;50.878;4.584;2022-12-18T05:13:49;25.92;;;15.43;;
37781;SDS011;23621;50.878;4.584;2022-12-18T05:16:16;26.15;;;15.32;;
37781;SDS011;23621;50.878;4.584;2022-12-18T05:18:43;26.27;;;15.45;;
37781;SDS011;23621;50.878;4.584;2022-12-18T05:21:09;25.88;;;15.23;;
37781;SDS011;23621;50.878;4.584;2022-12-18T05:23:36;24.85;;;15.13;;
37781;SDS011;23621;50.878;4.584;2022-12-18T05:26:05;25.52;;;14.73;;
37781;SDS011;23621;50.878;4.584;2022-12-18T05:28:33;25.70;;;15.55;;
37781;SDS011;23621;50.878;4.584;2022-12-18T05:31:01;25.85;;;15.88;;
37781;SDS011;23621;50.878;4.584;2022-12-18T05:33:31;28.38;;;16.05;;
37781;SDS011;23621;50.878;4.584;2022-12-18T05:35:59;26.15;;;16.42;;
37781;SDS011;23621;50.878;4.584;2022-12-18T05:38:28;26.90;;;15.25;;
37781;SDS011;23621;50.878;4.584;2022-12-18T05:40:56;26.85;;;15.88;;
37781;SDS011;23621;50.878;4.584;2022-12-18T05:43:23;28.35;;;16.60;;
37781;SDS011;23621;50.878;4.584;2022-12-18T05:45:51;23.35;;;14.95;;
37781;SDS011;23621;50.878;4.584;2022-12-18T05:48:19;22.58;;;15.07;;
37781;SDS011;23621;50.878;4.584;2022-12-18T05:50:47;26.08;;;15.98;;
37781;SDS011;23621;50.878;4.584;2022-12-18T05:53:15;25.90;;;15.18;;
37781;SDS011;23621;50.878;4.584;2022-12-18T05:55:43;21.38;;;14.00;;
37781;SDS011;23621;50.878;4.584;2022-12-18T05:58:11;24.45;;;14.63;;
37781;SDS011;23621;50.878;4.584;2022-12-18T06:00:39;21.83;;;13.98;;
37781;SDS011;23621;50.878;4.584;2022-12-18T06:03:08;23.05;;;13.65;;
37781;SDS011;23621;50.878;4.584;2022-12-18T06:05:40;23.70;;;14.43;;
37781;SDS011;23621;50.878;4.584;2022-12-18T06:08:08;22.48;;;14.32;;
37781;SDS011;23621;50.878;4.584;2022-12-18T06:10:36;23.75;;;14.85;;
37781;SDS011;23621;50.878;4.584;2022-12-18T06:13:03;25.73;;;14.55;;
37781;SDS011;23621;50.878;4.584;2022-12-18T06:15:31;24.27;;;13.95;;
37781;SDS011;23621;50.878;4.584;2022-12-18T06:18:00;24.17;;;13.98;;
37781;SDS011;23621;50.878;4.584;2022-12-18T06:20:27;22.10;;;14.02;;
37781;SDS011;23621;50.878;4.584;2022-12-18T06:22:59;24.45;;;14.38;;
37781;SDS011;23621;50.878;4.584;2022-12-18T06:25:26;22.92;;;14.30;;
37781;SDS011;23621;50.878;4.584;2022-12-18T06:27:53;21.50;;;13.70;;
37781;SDS011;23621;50.878;4.584;2022-12-18T06:30:20;23.63;;;14.35;;
37781;SDS011;23621;50.878;4.584;2022-12-18T06:32:50;22.88;;;14.55;;
37781;SDS011;23621;50.878;4.584;2022-12-18T06:35:22;26.05;;;14.93;;
37781;SDS011;23621;50.878;4.584;2022-12-18T06:37:49;20.45;;;14.32;;
37781;SDS011;23621;50.878;4.584;2022-12-18T06:40:16;22.25;;;13.85;;
37781;SDS011;23621;50.878;4.584;2022-12-18T06:42:42;24.98;;;14.55;;
37781;SDS011;23621;50.878;4.584;2022-12-18T06:45:09;22.67;;;14.40;;
37781;SDS011;23621;50.878;4.584;2022-12-18T06:47:37;23.00;;;13.45;;
37781;SDS011;23621;50.878;4.584;2022-12-18T06:50:04;23.67;;;12.98;;
37781;SDS011;23621;50.878;4.584;2022-12-18T06:52:32;21.50;;;13.52;;
37781;SDS011;23621;50.878;4.584;2022-12-18T06:54:59;23.10;;;13.98;;
37781;SDS011;23621;50.878;4.584;2022-12-18T06:57:26;22.60;;;13.07;;
37781;SDS011;23621;50.878;4.584;2022-12-18T06:59:53;23.98;;;14.00;;
37781;SDS011;23621;50.878;4.584;2022-12-18T07:02:20;21.05;;;14.13;;
37781;SDS011;23621;50.878;4.584;2022-12-18T07:04:50;20.63;;;14.00;;
37781;SDS011;23621;50.878;4.584;2022-12-18T07:07:17;23.20;;;13.63;;
37781;SDS011;23621;50.878;4.584;2022-12-18T07:09:44;23.65;;;14.48;;
37781;SDS011;23621;50.878;4.584;2022-12-18T07:12:11;21.42;;;13.20;;
37781;SDS011;23621;50.878;4.584;2022-12-18T07:14:38;22.30;;;13.05;;
37781;SDS011;23621;50.878;4.584;2022-12-18T07:17:04;22.45;;;13.95;;
37781;SDS011;23621;50.878;4.584;2022-12-18T07:19:32;23.38;;;13.15;;
37781;SDS011;23621;50.878;4.584;2022-12-18T07:21:59;20.50;;;12.45;;
37781;SDS011;23621;50.878;4.584;2022-12-18T07:24:26;18.73;;;11.93;;
37781;SDS011;23621;50.878;4.584;2022-12-18T07:26:52;20.00;;;11.07;;
37781;SDS011;23621;50.878;4.584;2022-12-18T07:29:19;22.70;;;12.45;;
37781;SDS011;23621;50.878;4.584;2022-12-18T07:31:46;19.00;;;12.32;;
37781;SDS011;23621;50.878;4.584;2022-12-18T07:34:14;20.23;;;12.82;;
37781;SDS011;23621;50.878;4.584;2022-12-18T07:36:41;19.42;;;12.65;;
37781;SDS011;23621;50.878;4.584;2022-12-18T07:39:10;17.75;;;11.80;;
37781;SDS011;23621;50.878;4.584;2022-12-18T07:41:37;20.58;;;12.13;;
37781;SDS011;23621;50.878;4.584;2022-12-18T07:44:12;28.50;;;13.55;;
37781;SDS011;23621;50.878;4.584;2022-12-18T07:46:39;24.15;;;14.57;;
37781;SDS011;23621;50.878;4.584;2022-12-18T07:49:05;22.38;;;13.15;;
37781;SDS011;23621;50.878;4.584;2022-12-18T07:51:32;21.50;;;13.23;;
37781;SDS011;23621;50.878;4.584;2022-12-18T07:53:59;19.23;;;13.02;;
37781;SDS011;23621;50.878;4.584;2022-12-18T07:56:26;22.25;;;12.93;;
37781;SDS011;23621;50.878;4.584;2022-12-18T07:58:55;19.20;;;13.15;;
37781;SDS011;23621;50.878;4.584;2022-12-18T08:01:22;20.05;;;12.13;;
37781;SDS011;23621;50.878;4.584;2022-12-18T08:03:49;19.13;;;11.20;;
37781;SDS011;23621;50.878;4.584;2022-12-18T08:06:17;17.63;;;10.95;;
37781;SDS011;23621;50.878;4.584;2022-12-18T08:08:50;19.35;;;12.48;;
37781;SDS011;23621;50.878;4.584;2022-12-18T08:11:20;18.88;;;12.07;;
37781;SDS011;23621;50.878;4.584;2022-12-18T08:13:48;20.67;;;12.75;;
37781;SDS011;23621;50.878;4.584;2022-12-18T08:16:15;19.80;;;11.88;;
37781;SDS011;23621;50.878;4.584;2022-12-18T08:18:43;20.30;;;12.88;;
37781;SDS011;23621;50.878;4.584;2022-12-18T08:21:10;16.80;;;11.73;;
37781;SDS011;23621;50.878;4.584;2022-12-18T08:23:42;20.65;;;12.45;;
37781;SDS011;23621;50.878;4.584;2022-12-18T08:26:09;16.83;;;10.65;;
37781;SDS011;23621;50.878;4.584;2022-12-18T08:28:37;17.38;;;11.70;;
37781;SDS011;23621;50.878;4.584;2022-12-18T08:31:05;18.73;;;11.80;;
37781;SDS011;23621;50.878;4.584;2022-12-18T08:33:33;18.42;;;12.15;;
37781;SDS011;23621;50.878;4.584;2022-12-18T08:36:00;19.35;;;10.43;;
37781;SDS011;23621;50.878;4.584;2022-12-18T08:38:32;19.08;;;10.88;;
37781;SDS011;23621;50.878;4.584;2022-12-18T08:40:59;19.45;;;12.45;;
37781;SDS011;23621;50.878;4.584;2022-12-18T08:43:27;16.42;;;11.13;;
37781;SDS011;23621;50.878;4.584;2022-12-18T08:46:13;15.00;;;10.93;;
37781;SDS011;23621;50.878;4.584;2022-12-18T08:48:41;20.42;;;12.52;;
37781;SDS011;23621;50.878;4.584;2022-12-18T08:51:08;19.02;;;12.20;;
37781;SDS011;23621;50.878;4.584;2022-12-18T08:53:38;21.23;;;12.63;;
37781;SDS011;23621;50.878;4.584;2022-12-18T08:56:06;20.35;;;11.82;;
37781;SDS011;23621;50.878;4.584;2022-12-18T08:58:33;18.45;;;12.00;;
37781;SDS011;23621;50.878;4.584;2022-12-18T09:01:01;19.67;;;12.85;;
37781;SDS011;23621;50.878;4.584;2022-12-18T09:03:30;15.85;;;11.50;;
37781;SDS011;23621;50.878;4.584;2022-12-18T09:05:58;20.58;;;12.30;;
37781;SDS011;23621;50.878;4.584;2022-12-18T09:08:25;18.00;;;11.38;;
37781;SDS011;23621;50.878;4.584;2022-12-18T09:10:53;17.30;;;11.85;;
37781;SDS011;23621;50.878;4.584;2022-12-18T09:13:20;18.73;;;11.77;;
37781;SDS011;23621;50.878;4.584;2022-12-18T09:15:48;17.23;;;11.30;;
37781;SDS011;23621;50.878;4.584;2022-12-18T09:18:18;17.13;;;10.40;;
37781;SDS011;23621;50.878;4.584;2022-12-18T09:20:46;15.15;;;10.45;;
37781;SDS011;23621;50.878;4.584;2022-12-18T09:23:13;15.52;;;11.30;;
37781;SDS011;23621;50.878;4.584;2022-12-18T09:25:40;14.85;;;10.50;;
37781;SDS011;23621;50.878;4.584;2022-12-18T09:28:13;18.63;;;12.00;;
37781;SDS011;23621;50.878;4.584;2022-12-18T09:30:44;17.52;;;11.40;;
37781;SDS011;23621;50.878;4.584;2022-12-18T09:33:15;16.67;;;10.65;;
37781;SDS011;23621;50.878;4.584;2022-12-18T09:35:44;16.58;;;10.45;;
37781;SDS011;23621;50.878;4.584;2022-12-18T09:38:12;17.35;;;10.30;;
37781;SDS011;23621;50.878;4.584;2022-12-18T09:40:46;15.70;;;10.50;;
37781;SDS011;23621;50.878;4.584;2022-12-18T09:43:22;13.77;;;10.38;;
37781;SDS011;23621;50.878;4.584;2022-12-18T09:45:58;19.85;;;11.43;;
37781;SDS011;23621;50.878;4.584;2022-12-18T09:48:30;16.60;;;10.88;;
37781;SDS011;23621;50.878;4.584;2022-12-18T09:51:19;16.73;;;10.75;;
37781;SDS011;23621;50.878;4.584;2022-12-18T09:53:51;15.68;;;10.18;;
37781;SDS011;23621;50.878;4.584;2022-12-18T09:56:23;14.10;;;9.88;;
37781;SDS011;23621;50.878;4.584;2022-12-18T09:58:55;13.75;;;10.23;;
37781;SDS011;23621;50.878;4.584;2022-12-18T10:01:28;14.60;;;10.32;;
37781;SDS011;23621;50.878;4.584;2022-12-18T10:04:09;15.90;;;10.40;;
37781;SDS011;23621;50.878;4.584;2022-12-18T10:06:45;14.68;;;10.45;;
37781;SDS011;23621;50.878;4.584;2022-12-18T10:09:37;15.45;;;10.35;;
37781;SDS011;23621;50.878;4.584;2022-12-18T10:15:23;14.93;;;10.30;;
37781;SDS011;23621;50.878;4.584;2022-12-18T10:21:03;15.07;;;10.98;;
37781;SDS011;23621;50.878;4.584;2022-12-18T10:26:19;14.70;;;10.73;;
37781;SDS011;23621;50.878;4.584;2022-12-18T10:28:47;15.90;;;10.88;;
37781;SDS011;23621;50.878;4.584;2022-12-18T10:31:19;17.83;;;12.27;;
37781;SDS011;23621;50.878;4.584;2022-12-18T10:33:50;23.92;;;12.73;;
37781;SDS011;23621;50.878;4.584;2022-12-18T10:36:17;17.52;;;12.00;;
37781;SDS011;23621;50.878;4.584;2022-12-18T10:38:44;14.88;;;11.32;;
37781;SDS011;23621;50.878;4.584;2022-12-18T10:43:47;16.73;;;11.45;;
37781;SDS011;23621;50.878;4.584;2022-12-18T10:46:15;16.65;;;11.13;;
37781;SDS011;23621;50.878;4.584;2022-12-18T10:53:51;16.35;;;11.30;;
37781;SDS011;23621;50.878;4.584;2022-12-18T10:56:33;18.10;;;12.60;;
37781;SDS011;23621;50.878;4.584;2022-12-18T10:59:06;19.30;;;11.75;;
37781;SDS011;23621;50.878;4.584;2022-12-18T11:04:18;16.10;;;12.32;;
37781;SDS011;23621;50.878;4.584;2022-12-18T11:09:34;17.45;;;12.02;;
37781;SDS011;23621;50.878;4.584;2022-12-18T11:12:15;16.40;;;12.10;;
37781;SDS011;23621;50.878;4.584;2022-12-18T11:14:47;16.13;;;11.52;;
37781;SDS011;23621;50.878;4.584;2022-12-18T11:17:20;19.85;;;13.77;;
37781;SDS011;23621;50.878;4.584;2022-12-18T11:19:52;20.13;;;13.98;;
37781;SDS011;23621;50.878;4.584;2022-12-18T11:24:59;20.35;;;16.08;;
37781;SDS011;23621;50.878;4.584;2022-12-18T11:28:00;15.93;;;12.52;;
37781;SDS011;23621;50.878;4.584;2022-12-18T11:30:29;20.05;;;12.90;;
37781;SDS011;23621;50.878;4.584;2022-12-18T11:33:00;14.45;;;11.15;;
37781;SDS011;23621;50.878;4.584;2022-12-18T11:40:56;16.83;;;13.50;;
37781;SDS011;23621;50.878;4.584;2022-12-18T11:43:47;17.23;;;11.88;;
37781;SDS011;23621;50.878;4.584;2022-12-18T11:46:36;21.50;;;13.00;;
37781;SDS011;23621;50.878;4.584;2022-12-18T11:49:11;21.40;;;14.75;;
37781;SDS011;23621;50.878;4.584;2022-12-18T11:54:51;31.98;;;19.50;;
37781;SDS011;23621;50.878;4.584;2022-12-18T12:00:25;30.77;;;17.42;;
37781;SDS011;23621;50.878;4.584;2022-12-18T12:16:58;17.88;;;13.57;;
37781;SDS011;23621;50.878;4.584;2022-12-18T12:38:56;23.27;;;16.70;;
37781;SDS011;23621;50.878;4.584;2022-12-18T12:41:29;20.95;;;14.15;;
37781;SDS011;23621;50.878;4.584;2022-12-18T12:44:20;27.75;;;18.80;;
37781;SDS011;23621;50.878;4.584;2022-12-18T12:46:50;21.17;;;14.85;;
37781;SDS011;23621;50.878;4.584;2022-12-18T12:49:21;19.92;;;14.50;;
37781;SDS011;23621;50.878;4.584;2022-12-18T12:51:56;18.98;;;12.90;;
37781;SDS011;23621;50.878;4.584;2022-12-18T12:54:28;19.88;;;13.60;;
37781;SDS011;23621;50.878;4.584;2022-12-18T12:57:00;19.08;;;13.30;;
37781;SDS011;23621;50.878;4.584;2022-12-18T13:05:51;21.13;;;13.02;;
37781;SDS011;23621;50.878;4.584;2022-12-18T13:08:22;18.63;;;12.88;;
37781;SDS011;23621;50.878;4.584;2022-12-18T13:10:57;20.00;;;13.30;;
37781;SDS011;23621;50.878;4.584;2022-12-18T13:13:49;20.55;;;12.82;;
37781;SDS011;23621;50.878;4.584;2022-12-18T13:16:24;19.05;;;13.40;;
37781;SDS011;23621;50.878;4.584;2022-12-18T13:18:54;22.63;;;14.73;;
37781;SDS011;23621;50.878;4.584;2022-12-18T13:23:57;21.00;;;14.88;;
37781;SDS011;23621;50.878;4.584;2022-12-18T13:26:49;25.17;;;15.73;;
37781;SDS011;23621;50.878;4.584;2022-12-18T13:32:24;24.17;;;16.45;;
37781;SDS011;23621;50.878;4.584;2022-12-18T13:37:51;21.15;;;13.65;;
37781;SDS011;23621;50.878;4.584;2022-12-18T13:44:09;23.25;;;12.35;;
37781;SDS011;23621;50.878;4.584;2022-12-18T13:46:19;21.13;;;13.02;;
37781;SDS011;23621;50.878;4.584;2022-12-18T13:48:51;20.92;;;13.40;;
37781;SDS011;23621;50.878;4.584;2022-12-18T13:51:27;21.40;;;14.82;;
37781;SDS011;23621;50.878;4.584;2022-12-18T13:56:27;19.48;;;13.52;;
37781;SDS011;23621;50.878;4.584;2022-12-18T14:30:56;35.90;;;18.63;;
37781;SDS011;23621;50.878;4.584;2022-12-18T14:33:26;36.58;;;23.77;;
37781;SDS011;23621;50.878;4.584;2022-12-18T14:35:55;30.73;;;20.00;;
37781;SDS011;23621;50.878;4.584;2022-12-18T14:38:34;27.48;;;16.35;;
37781;SDS011;23621;50.878;4.584;2022-12-18T14:41:06;24.42;;;15.05;;
37781;SDS011;23621;50.878;4.584;2022-12-18T14:43:39;20.83;;;13.98;;
37781;SDS011;23621;50.878;4.584;2022-12-18T14:49:49;23.50;;;14.25;;
37781;SDS011;23621;50.878;4.584;2022-12-18T14:52:04;22.77;;;14.75;;
37781;SDS011;23621;50.878;4.584;2022-12-18T14:54:34;27.55;;;15.40;;
37781;SDS011;23621;50.878;4.584;2022-12-18T14:57:22;23.20;;;15.05;;
37781;SDS011;23621;50.878;4.584;2022-12-18T14:59:51;24.15;;;13.95;;
37781;SDS011;23621;50.878;4.584;2022-12-18T15:02:20;23.75;;;14.98;;
37781;SDS011;23621;50.878;4.584;2022-12-18T15:05:00;25.88;;;17.13;;
37781;SDS011;23621;50.878;4.584;2022-12-18T15:07:42;27.45;;;17.20;;
37781;SDS011;23621;50.878;4.584;2022-12-18T15:10:15;28.77;;;17.45;;
37781;SDS011;23621;50.878;4.584;2022-12-18T15:13:05;25.58;;;15.48;;
37781;SDS011;23621;50.878;4.584;2022-12-18T15:20:51;23.40;;;16.95;;
37781;SDS011;23621;50.878;4.584;2022-12-18T15:23:28;27.63;;;17.33;;
37781;SDS011;23621;50.878;4.584;2022-12-18T15:26:12;27.27;;;17.33;;
37781;SDS011;23621;50.878;4.584;2022-12-18T15:28:54;26.98;;;17.40;;
37781;SDS011;23621;50.878;4.584;2022-12-18T15:31:23;28.20;;;16.48;;
37781;SDS011;23621;50.878;4.584;2022-12-18T15:36:22;24.42;;;15.55;;
37781;SDS011;23621;50.878;4.584;2022-12-18T15:38:52;32.53;;;23.73;;
37781;SDS011;23621;50.878;4.584;2022-12-18T15:41:31;29.60;;;18.27;;
37781;SDS011;23621;50.878;4.584;2022-12-18T15:44:01;26.17;;;16.05;;
37781;SDS011;23621;50.878;4.584;2022-12-18T15:46:42;37.05;;;20.20;;
37781;SDS011;23621;50.878;4.584;2022-12-18T15:49:10;26.45;;;18.50;;
37781;SDS011;23621;50.878;4.584;2022-12-18T15:51:37;30.15;;;19.98;;
37781;SDS011;23621;50.878;4.584;2022-12-18T15:54:05;30.17;;;18.75;;
37781;SDS011;23621;50.878;4.584;2022-12-18T15:56:37;25.33;;;16.27;;
37781;SDS011;23621;50.878;4.584;2022-12-18T15:59:23;24.10;;;15.40;;
37781;SDS011;23621;50.878;4.584;2022-12-18T16:01:51;30.15;;;16.75;;
37781;SDS011;23621;50.878;4.584;2022-12-18T16:04:22;25.73;;;15.05;;
37781;SDS011;23621;50.878;4.584;2022-12-18T16:06:50;24.90;;;15.35;;
37781;SDS011;23621;50.878;4.584;2022-12-18T16:09:38;25.35;;;15.75;;
37781;SDS011;23621;50.878;4.584;2022-12-18T16:12:06;29.40;;;16.92;;
37781;SDS011;23621;50.878;4.584;2022-12-18T16:14:37;27.23;;;16.23;;
37781;SDS011;23621;50.878;4.584;2022-12-18T16:17:05;26.90;;;15.82;;
37781;SDS011;23621;50.878;4.584;2022-12-18T16:19:35;25.15;;;16.63;;
37781;SDS011;23621;50.878;4.584;2022-12-18T16:22:03;26.55;;;16.35;;
37781;SDS011;23621;50.878;4.584;2022-12-18T16:24:32;26.45;;;15.95;;
37781;SDS011;23621;50.878;4.584;2022-12-18T16:27:02;30.33;;;15.98;;
37781;SDS011;23621;50.878;4.584;2022-12-18T16:29:29;27.48;;;15.77;;
37781;SDS011;23621;50.878;4.584;2022-12-18T16:31:57;30.67;;;17.20;;
37781;SDS011;23621;50.878;4.584;2022-12-18T16:34:29;29.40;;;15.48;;
37781;SDS011;23621;50.878;4.584;2022-12-18T16:37:05;28.33;;;15.38;;
37781;SDS011;23621;50.878;4.584;2022-12-18T16:39:33;24.27;;;14.13;;
37781;SDS011;23621;50.878;4.584;2022-12-18T16:42:02;24.40;;;14.25;;
37781;SDS011;23621;50.878;4.584;2022-12-18T16:44:32;24.58;;;15.57;;
37781;SDS011;23621;50.878;4.584;2022-12-18T16:46:59;28.73;;;18.25;;
37781;SDS011;23621;50.878;4.584;2022-12-18T16:49:28;29.48;;;18.10;;
37781;SDS011;23621;50.878;4.584;2022-12-18T16:51:56;26.60;;;16.23;;
37781;SDS011;23621;50.878;4.584;2022-12-18T16:54:23;28.42;;;16.40;;
37781;SDS011;23621;50.878;4.584;2022-12-18T16:56:50;27.02;;;16.15;;
37781;SDS011;23621;50.878;4.584;2022-12-18T16:59:17;25.50;;;16.42;;
37781;SDS011;23621;50.878;4.584;2022-12-18T17:01:45;28.30;;;17.23;;
37781;SDS011;23621;50.878;4.584;2022-12-18T17:04:12;27.45;;;16.88;;
37781;SDS011;23621;50.878;4.584;2022-12-18T17:06:41;25.38;;;15.88;;
37781;SDS011;23621;50.878;4.584;2022-12-18T17:09:12;26.27;;;17.02;;
37781;SDS011;23621;50.878;4.584;2022-12-18T17:11:41;27.42;;;17.70;;
37781;SDS011;23621;50.878;4.584;2022-12-18T17:14:10;26.05;;;16.25;;
37781;SDS011;23621;50.878;4.584;2022-12-18T17:16:44;24.92;;;15.90;;